Time;durP1;ratioP1;P1;durP2;ratioP2;P2;SDS_P1;SDS_P2;PMS_P1;PMS_P2;Temp;Humidity;BMP_temperature;BMP_pressure;BME280_temperature;BME280_humidity;BME280_pressure;Samples;Min_cycle;Max_cycle;Signal;HPM_P1;HPM_P2
2023/10/22 00:00:11;;;;;;;;;;;15.30;99.90;;;;;;4977502;28;19906;-65
2023/10/22 00:02:37;;;;;;;;;;;15.30;99.90;;;;;;4995348;28;19909;-65
2023/10/22 00:05:06;;;;;;;;;;;15.40;99.90;;;;;;4977529;28;19906;-64
2023/10/22 00:07:32;;;;;;;;;;;15.40;99.90;;;;;;4978114;28;19906;-65
2023/10/22 00:09:58;;;;;;;;;;;15.50;99.90;;;;;;4977150;28;20327;-64
2023/10/22 00:12:23;;;;;;;;;;;15.50;99.90;;;;;;4993701;28;19909;-64
2023/10/22 00:14:49;;;;;;;;;;;15.50;99.90;;;;;;4994921;28;20025;-65
2023/10/22 00:17:15;;;;;;;;;;;15.50;99.90;;;;;;4994931;28;19992;-65
2023/10/22 00:19:40;;;;;;;;;;;15.50;99.90;;;;;;4994538;28;19905;-65
2023/10/22 00:22:06;;;;;;;;;;;15.50;99.90;;;;;;4993506;28;19941;-64
2023/10/22 00:24:32;;;;;;;;;;;15.50;99.90;;;;;;4993508;28;19906;-65
2023/10/22 00:26:58;;;;;;;;;;;15.40;99.90;;;;;;4977517;28;19910;-64
2023/10/22 00:29:24;;;;;;;;;;;15.50;99.90;;;;;;4977288;28;19914;-64
2023/10/22 00:31:49;;;;;;;;;;;15.50;99.90;;;;;;4994657;28;19910;-64
2023/10/22 00:34:15;;;;;;;;;;;15.50;99.90;;;;;;4994798;28;19909;-64
2023/10/22 00:36:41;;;;;;;;;;;15.50;99.90;;;;;;4994715;28;19906;-64
2023/10/22 00:39:07;;;;;;;;;;;15.50;99.90;;;;;;4994362;28;19933;-65
2023/10/22 00:41:32;;;;;;;;;;;15.50;99.90;;;;;;4977167;28;20456;-64
2023/10/22 00:43:59;;;;;;;;;;;15.50;99.90;;;;;;4994233;28;19922;-64
2023/10/22 00:46:25;;;;;;;;;;;15.40;99.90;;;;;;4994674;28;19952;-64
2023/10/22 00:48:52;;;;;;;;;;;15.40;99.90;;;;;;4994377;28;19948;-64
2023/10/22 00:51:17;;;;;;;;;;;15.40;99.90;;;;;;4997213;28;19925;-64
2023/10/22 00:53:44;;;;;;;;;;;15.50;99.90;;;;;;4998828;28;20333;-65
2023/10/22 00:56:11;;;;;;;;;;;15.50;99.90;;;;;;4980838;28;19905;-64
2023/10/22 00:58:36;;;;;;;;;;;15.40;99.90;;;;;;4997960;28;19912;-64
2023/10/22 01:01:05;;;;;;;;;;;15.40;99.90;;;;;;4998266;28;19996;-65
2023/10/22 01:03:31;;;;;;;;;;;15.40;99.90;;;;;;4998523;28;19906;-64
2023/10/22 01:05:56;;;;;;;;;;;15.30;99.90;;;;;;4998033;28;19906;-64
2023/10/22 01:08:22;;;;;;;;;;;15.30;99.90;;;;;;4980740;28;19906;-64
2023/10/22 01:10:47;;;;;;;;;;;15.30;99.90;;;;;;4997943;28;20040;-65
2023/10/22 01:13:14;;;;;;;;;;;15.20;99.90;;;;;;4981033;28;20372;-65
2023/10/22 01:15:39;;;;;;;;;;;15.20;99.90;;;;;;4980505;28;20000;-64
2023/10/22 01:18:05;;;;;;;;;;;15.20;99.90;;;;;;4997880;28;20000;-64
2023/10/22 01:20:32;;;;;;;;;;;15.10;99.90;;;;;;4997835;28;19906;-64
2023/10/22 01:22:57;;;;;;;;;;;15.10;99.90;;;;;;4980034;28;19945;-65
2023/10/22 01:25:23;;;;;;;;;;;15.10;99.90;;;;;;4997880;28;20013;-65
2023/10/22 01:27:48;;;;;;;;;;;15.00;99.90;;;;;;4997559;28;19910;-66
2023/10/22 01:30:14;;;;;;;;;;;15.00;99.90;;;;;;4999365;28;19910;-65
2023/10/22 01:32:39;;;;;;;;;;;14.90;99.90;;;;;;4999734;28;19916;-65
2023/10/22 01:35:06;;;;;;;;;;;14.90;99.90;;;;;;4998486;28;19905;-65
2023/10/22 01:37:33;;;;;;;;;;;14.90;99.90;;;;;;4979822;28;19906;-65
2023/10/22 01:39:59;;;;;;;;;;;14.80;99.90;;;;;;4997329;28;20353;-64
2023/10/22 01:42:25;;;;;;;;;;;14.80;99.90;;;;;;4997318;28;19913;-64
2023/10/22 01:44:51;;;;;;;;;;;14.80;99.90;;;;;;4979956;28;19905;-65
2023/10/22 01:47:17;;;;;;;;;;;14.70;99.90;;;;;;4997443;28;20365;-64
2023/10/22 01:49:42;;;;;;;;;;;14.70;99.90;;;;;;4997297;28;19906;-64
2023/10/22 01:52:08;;;;;;;;;;;14.70;99.90;;;;;;4997979;28;19917;-64
2023/10/22 01:54:34;;;;;;;;;;;14.80;99.90;;;;;;4979737;28;19905;-64
2023/10/22 01:57:00;;;;;;;;;;;14.70;99.90;;;;;;4979622;28;19913;-64
2023/10/22 01:59:25;;;;;;;;;;;14.70;99.90;;;;;;4979644;28;19912;-64
2023/10/22 02:01:51;;;;;;;;;;;14.70;99.90;;;;;;4994608;28;19906;-64
2023/10/22 02:04:16;;;;;;;;;;;14.70;99.90;;;;;;4995830;28;20007;-64
2023/10/22 02:06:43;;;;;;;;;;;14.70;99.90;;;;;;4997547;28;19906;-65
2023/10/22 02:09:08;;;;;;;;;;;14.70;99.90;;;;;;4996977;28;19906;-64
2023/10/22 02:11:34;;;;;;;;;;;14.70;99.90;;;;;;4996886;28;19914;-64
2023/10/22 02:13:59;;;;;;;;;;;14.70;99.90;;;;;;4996626;28;20000;-64
2023/10/22 02:16:25;;;;;;;;;;;14.70;99.90;;;;;;4996887;28;20262;-64
2023/10/22 02:18:50;;;;;;;;;;;14.70;99.90;;;;;;4979292;28;19906;-64
2023/10/22 02:21:16;;;;;;;;;;;14.70;99.90;;;;;;4997257;28;19913;-65
2023/10/22 02:23:42;;;;;;;;;;;14.60;99.90;;;;;;4996702;28;19906;-64
2023/10/22 02:26:07;;;;;;;;;;;14.70;99.90;;;;;;4996679;28;20289;-64
2023/10/22 02:28:33;;;;;;;;;;;14.60;99.90;;;;;;4996608;28;19906;-64
2023/10/22 02:30:58;;;;;;;;;;;14.60;99.90;;;;;;4997065;28;19913;-65
2023/10/22 02:33:24;;;;;;;;;;;14.60;99.90;;;;;;4980255;28;19906;-65
2023/10/22 02:35:51;;;;;;;;;;;14.60;99.90;;;;;;4979139;28;19905;-65
2023/10/22 02:38:17;;;;;;;;;;;14.60;99.90;;;;;;4978922;28;19980;-64
2023/10/22 02:40:43;;;;;;;;;;;14.60;99.90;;;;;;4996409;28;19961;-64
2023/10/22 02:43:09;;;;;;;;;;;14.60;99.90;;;;;;4978865;28;19906;-64
2023/10/22 02:45:34;;;;;;;;;;;14.60;99.90;;;;;;4996497;28;19937;-64
2023/10/22 02:48:00;;;;;;;;;;;14.60;99.90;;;;;;4996267;28;19906;-65
2023/10/22 02:50:26;;;;;;;;;;;14.50;99.90;;;;;;4978548;28;19914;-65
2023/10/22 02:52:52;;;;;;;;;;;14.60;99.90;;;;;;4978868;28;19914;-65
2023/10/22 02:55:18;;;;;;;;;;;14.60;99.90;;;;;;4996415;28;20353;-65
2023/10/22 02:57:44;;;;;;;;;;;14.60;99.90;;;;;;4979382;28;20329;-69
2023/10/22 03:00:12;;;;;;;;;;;14.50;99.90;;;;;;4996485;28;19906;-64
2023/10/22 03:02:38;;;;;;;;;;;14.50;99.90;;;;;;4978517;28;19997;-65
2023/10/22 03:05:04;;;;;;;;;;;14.50;99.90;;;;;;4995791;28;20377;-64
2023/10/22 03:07:29;;;;;;;;;;;14.50;99.90;;;;;;4995818;28;20357;-64
2023/10/22 03:09:55;;;;;;;;;;;14.50;99.90;;;;;;4996194;28;20017;-64
2023/10/22 03:12:21;;;;;;;;;;;14.50;99.90;;;;;;4995276;28;19987;-65
2023/10/22 03:14:48;;;;;;;;;;;14.50;99.90;;;;;;4995738;28;20296;-64
2023/10/22 03:17:13;;;;;;;;;;;14.50;99.90;;;;;;4995729;28;19920;-64
2023/10/22 03:19:39;;;;;;;;;;;14.50;99.90;;;;;;4995360;28;19906;-64
2023/10/22 03:22:04;;;;;;;;;;;14.50;99.90;;;;;;4994349;28;19933;-64
2023/10/22 03:24:30;;;;;;;;;;;14.50;99.90;;;;;;4995598;28;19906;-64
2023/10/22 03:26:56;;;;;;;;;;;14.50;99.90;;;;;;4994259;28;19909;-64
2023/10/22 03:29:21;;;;;;;;;;;14.50;99.90;;;;;;4978047;28;20246;-64
2023/10/22 03:31:47;;;;;;;;;;;14.50;99.90;;;;;;4995372;28;19925;-65
2023/10/22 03:34:12;;;;;;;;;;;14.50;99.90;;;;;;4995423;28;19906;-64
2023/10/22 03:36:39;;;;;;;;;;;14.50;99.90;;;;;;4995087;28;19993;-64
2023/10/22 03:39:06;;;;;;;;;;;14.50;99.90;;;;;;4995316;28;19913;-64
2023/10/22 03:41:32;;;;;;;;;;;14.50;99.90;;;;;;4977772;28;20338;-64
2023/10/22 03:43:58;;;;;;;;;;;14.50;99.90;;;;;;4995260;28;19909;-64
2023/10/22 03:46:24;;;;;;;;;;;14.40;99.90;;;;;;4978002;28;20041;-64
2023/10/22 03:48:49;;;;;;;;;;;14.50;99.90;;;;;;4994929;28;19952;-64
2023/10/22 03:51:15;;;;;;;;;;;14.50;99.90;;;;;;4994683;28;19917;-64
2023/10/22 03:53:40;;;;;;;;;;;14.50;99.90;;;;;;4977682;28;19905;-64
2023/10/22 03:56:07;;;;;;;;;;;14.40;99.90;;;;;;4995107;28;19961;-64
2023/10/22 03:58:32;;;;;;;;;;;14.50;99.90;;;;;;4977597;28;19928;-64
2023/10/22 04:00:58;;;;;;;;;;;14.40;99.90;;;;;;4995022;28;19909;-64
2023/10/22 04:03:24;;;;;;;;;;;14.50;99.90;;;;;;4977349;28;20341;-64
2023/10/22 04:06:07;;;;;;;;;;;14.50;99.90;;;;;;4994979;28;19906;-64
2023/10/22 04:08:33;;;;;;;;;;;14.50;99.90;;;;;;4994987;28;19905;-64
2023/10/22 04:10:58;;;;;;;;;;;14.50;99.90;;;;;;4994919;28;19910;-64
2023/10/22 04:13:24;;;;;;;;;;;14.50;99.90;;;;;;4994925;28;19965;-64
2023/10/22 04:15:51;;;;;;;;;;;14.50;99.90;;;;;;4995157;28;19913;-64
2023/10/22 04:18:19;;;;;;;;;;;14.50;99.90;;;;;;4994843;28;19921;-64
2023/10/22 04:20:44;;;;;;;;;;;14.40;99.90;;;;;;4977338;28;19906;-64
2023/10/22 04:23:10;;;;;;;;;;;14.40;99.90;;;;;;4977407;28;19928;-64
2023/10/22 04:25:44;;;;;;;;;;;14.40;99.90;;;;;;4979539;28;19913;-64
2023/10/22 04:28:10;;;;;;;;;;;14.50;99.90;;;;;;4998897;28;20004;-64
2023/10/22 04:30:36;;;;;;;;;;;14.40;99.90;;;;;;4998513;28;19910;-64
2023/10/22 04:33:01;;;;;;;;;;;14.40;99.90;;;;;;4998500;28;19909;-64
2023/10/22 04:35:27;;;;;;;;;;;14.40;99.90;;;;;;4998870;28;20372;-64
2023/10/22 04:37:54;;;;;;;;;;;14.40;99.90;;;;;;4999124;28;20009;-65
2023/10/22 04:40:20;;;;;;;;;;;14.50;99.90;;;;;;4999130;28;19906;-67
2023/10/22 04:42:45;;;;;;;;;;;14.40;99.90;;;;;;4981673;28;20012;-64
2023/10/22 04:45:12;;;;;;;;;;;14.40;99.90;;;;;;4981480;28;19912;-64
2023/10/22 04:47:37;;;;;;;;;;;14.50;99.90;;;;;;4998820;28;19932;-65
2023/10/22 04:50:03;;;;;;;;;;;14.40;99.90;;;;;;4999457;28;19941;-65
2023/10/22 04:52:32;;;;;;;;;;;14.40;99.90;;;;;;5000170;28;20265;-65
2023/10/22 04:55:01;;;;;;;;;;;14.40;99.90;;;;;;4981602;28;20349;-64
2023/10/22 04:57:27;;;;;;;;;;;14.30;99.90;;;;;;4998434;28;19988;-64
2023/10/22 04:59:53;;;;;;;;;;;14.30;99.90;;;;;;4981627;28;19906;-64
2023/10/22 05:02:18;;;;;;;;;;;14.20;99.90;;;;;;4998383;28;19905;-64
2023/10/22 05:04:47;;;;;;;;;;;14.20;99.90;;;;;;4980760;28;20392;-64
2023/10/22 05:07:14;;;;;;;;;;;14.10;99.90;;;;;;4998323;28;19906;-64
2023/10/22 05:09:39;;;;;;;;;;;13.90;99.90;;;;;;4980571;28;19906;-64
2023/10/22 05:12:05;;;;;;;;;;;13.80;99.90;;;;;;4997704;28;19913;-64
2023/10/22 05:14:31;;;;;;;;;;;13.60;99.90;;;;;;4980495;28;19906;-64
2023/10/22 05:16:56;;;;;;;;;;;13.50;99.90;;;;;;4996700;28;19912;-64
2023/10/22 05:19:22;;;;;;;;;;;13.40;99.90;;;;;;4997925;28;19996;-64
2023/10/22 05:21:47;;;;;;;;;;;13.30;99.90;;;;;;4997783;28;19951;-64
2023/10/22 05:24:13;;;;;;;;;;;13.20;99.90;;;;;;4996804;28;19927;-64
2023/10/22 05:26:39;;;;;;;;;;;13.10;99.90;;;;;;4997469;28;19945;-64
2023/10/22 05:29:05;;;;;;;;;;;13.00;99.90;;;;;;4980294;28;19906;-64
2023/10/22 05:31:30;;;;;;;;;;;12.90;99.90;;;;;;4997738;28;19964;-64
2023/10/22 05:33:56;;;;;;;;;;;12.80;99.90;;;;;;4997917;28;19968;-64
2023/10/22 05:36:21;;;;;;;;;;;12.70;99.90;;;;;;4997348;28;20385;-66
2023/10/22 05:38:47;;;;;;;;;;;12.70;99.90;;;;;;4999442;28;19917;-66
2023/10/22 05:41:21;;;;;;;;;;;12.70;99.90;;;;;;4981598;28;19906;-68
2023/10/22 05:43:47;;;;;;;;;;;12.70;99.90;;;;;;4981210;28;20411;-64
2023/10/22 05:46:12;;;;;;;;;;;12.80;99.90;;;;;;4997451;28;19996;-64
2023/10/22 05:48:38;;;;;;;;;;;12.90;99.90;;;;;;4997659;28;19916;-65
2023/10/22 05:51:03;;;;;;;;;;;13.00;99.90;;;;;;4980183;28;20380;-64
2023/10/22 05:53:29;;;;;;;;;;;13.00;99.90;;;;;;4997362;28;20011;-64
2023/10/22 05:55:56;;;;;;;;;;;13.10;99.90;;;;;;4997612;28;20325;-64
2023/10/22 05:58:21;;;;;;;;;;;13.20;99.90;;;;;;4997240;28;19906;-64
2023/10/22 06:00:50;;;;;;;;;;;13.20;99.90;;;;;;4997153;28;19928;-64
2023/10/22 06:03:15;;;;;;;;;;;13.20;99.90;;;;;;4997116;28;19906;-64
2023/10/22 06:05:41;;;;;;;;;;;13.30;99.90;;;;;;4980058;28;19906;-64
2023/10/22 06:08:07;;;;;;;;;;;13.30;99.90;;;;;;4997042;28;19913;-64
2023/10/22 06:10:38;;;;;;;;;;;13.40;99.90;;;;;;4997448;28;20421;-64
2023/10/22 06:13:04;;;;;;;;;;;13.40;99.90;;;;;;4996731;28;19909;-64
2023/10/22 06:15:29;;;;;;;;;;;13.40;99.90;;;;;;4996618;28;19912;-64
2023/10/22 06:17:55;;;;;;;;;;;13.40;99.90;;;;;;4996545;28;19912;-71
2023/10/22 06:20:20;;;;;;;;;;;13.60;99.90;;;;;;4995512;28;20113;-71
2023/10/22 06:22:46;;;;;;;;;;;14.10;99.90;;;;;;4997098;28;20040;-73
2023/10/22 06:25:11;;;;;;;;;;;14.50;99.90;;;;;;4996834;28;19909;-62
2023/10/22 06:27:37;;;;;;;;;;;14.70;99.90;;;;;;4996650;28;20273;-61
2023/10/22 06:30:02;;;;;;;;;;;14.90;99.90;;;;;;4979152;28;19906;-64
2023/10/22 06:32:28;;;;;;;;;;;14.70;99.90;;;;;;4996326;28;19968;-64
2023/10/22 06:34:53;;;;;;;;;;;14.20;99.90;;;;;;4996242;28;19909;-64
2023/10/22 06:37:19;;;;;;;;;;;14.00;99.90;;;;;;4996244;28;19932;-64
2023/10/22 06:39:44;;;;;;;;;;;13.80;99.90;;;;;;4996167;28;20012;-63
2023/10/22 06:42:10;;;;;;;;;;;13.80;99.90;;;;;;4996397;28;19906;-64
2023/10/22 06:44:37;;;;;;;;;;;13.80;99.90;;;;;;4996284;28;19950;-64
2023/10/22 06:47:03;;;;;;;;;;;13.80;99.90;;;;;;4996032;28;19906;-64
2023/10/22 06:49:29;;;;;;;;;;;13.80;99.90;;;;;;4978626;28;19913;-64
2023/10/22 06:51:54;;;;;;;;;;;13.80;99.90;;;;;;4995941;28;19964;-64
2023/10/22 06:54:20;;;;;;;;;;;13.80;99.90;;;;;;4996365;28;20350;-64
2023/10/22 06:56:45;;;;;;;;;;;13.90;99.90;;;;;;4995829;28;19906;-64
2023/10/22 06:59:11;;;;;;;;;;;13.90;99.90;;;;;;4996137;28;19929;-64
2023/10/22 07:01:36;;;;;;;;;;;13.90;99.90;;;;;;4996121;28;19906;-64
2023/10/22 07:04:02;;;;;;;;;;;14.00;99.90;;;;;;4995938;28;20349;-63
2023/10/22 07:06:27;;;;;;;;;;;14.00;99.90;;;;;;4995970;28;19910;-64
2023/10/22 07:08:53;;;;;;;;;;;14.00;99.90;;;;;;4996165;28;19910;-63
2023/10/22 07:11:18;;;;;;;;;;;14.10;99.90;;;;;;4995791;28;19961;-63
2023/10/22 07:13:44;;;;;;;;;;;14.10;99.90;;;;;;4995789;28;19910;-64
2023/10/22 07:16:10;;;;;;;;;;;14.20;99.90;;;;;;4995723;28;19949;-63
2023/10/22 07:18:36;;;;;;;;;;;14.30;99.90;;;;;;4995717;28;19945;-63
2023/10/22 07:21:01;;;;;;;;;;;14.30;99.90;;;;;;4995678;28;19906;-63
2023/10/22 07:23:31;;;;;;;;;;;14.40;99.90;;;;;;4995600;28;20380;-64
2023/10/22 07:25:57;;;;;;;;;;;14.50;99.90;;;;;;4995604;28;19964;-64
2023/10/22 07:28:22;;;;;;;;;;;14.60;99.90;;;;;;4995571;28;20349;-63
2023/10/22 07:30:48;;;;;;;;;;;14.70;99.90;;;;;;4978100;28;19913;-64
2023/10/22 07:33:15;;;;;;;;;;;14.70;99.90;;;;;;4995573;28;19910;-64
2023/10/22 07:35:50;;;;;;;;;;;14.80;99.90;;;;;;4977994;28;20048;-64
2023/10/22 07:38:16;;;;;;;;;;;14.80;99.90;;;;;;4978406;28;19913;-64
2023/10/22 07:40:42;;;;;;;;;;;14.90;99.90;;;;;;4996236;28;20269;-64
2023/10/22 07:43:08;;;;;;;;;;;14.90;99.90;;;;;;4978698;28;19910;-64
2023/10/22 07:45:37;;;;;;;;;;;15.00;99.90;;;;;;4978125;28;20347;-64
2023/10/22 07:48:03;;;;;;;;;;;15.00;99.90;;;;;;4995332;28;19921;-64
2023/10/22 07:50:28;;;;;;;;;;;15.10;99.90;;;;;;4977443;28;19910;-64
2023/10/22 07:52:54;;;;;;;;;;;15.00;99.90;;;;;;4995197;28;20357;-64
2023/10/22 07:55:19;;;;;;;;;;;15.00;99.90;;;;;;4995366;28;19937;-64
2023/10/22 07:57:45;;;;;;;;;;;15.00;99.90;;;;;;4993994;28;19905;-67
2023/10/22 08:00:11;;;;;;;;;;;15.20;99.90;;;;;;4977607;28;20345;-63
2023/10/22 08:02:36;;;;;;;;;;;15.20;99.90;;;;;;4995037;28;20404;-64
2023/10/22 08:05:02;;;;;;;;;;;15.10;99.90;;;;;;4995025;28;19909;-63
2023/10/22 08:07:27;;;;;;;;;;;15.20;99.90;;;;;;4993808;28;19949;-63
2023/10/22 08:09:53;;;;;;;;;;;15.30;99.90;;;;;;4994957;28;19913;-64
2023/10/22 08:12:18;;;;;;;;;;;15.30;99.90;;;;;;4994571;28;19920;-64
2023/10/22 08:14:44;;;;;;;;;;;15.30;99.90;;;;;;4994970;28;19913;-64
2023/10/22 08:17:09;;;;;;;;;;;15.20;99.90;;;;;;4995345;28;20000;-64
2023/10/22 08:19:35;;;;;;;;;;;15.10;99.90;;;;;;4995390;28;19906;-64
2023/10/22 08:22:01;;;;;;;;;;;15.10;99.90;;;;;;4994832;28;19905;-64
2023/10/22 08:24:26;;;;;;;;;;;15.10;99.90;;;;;;4994387;28;19905;-64
2023/10/22 08:26:51;;;;;;;;;;;15.10;99.90;;;;;;4977124;28;19913;-64
2023/10/22 08:29:17;;;;;;;;;;;15.10;99.90;;;;;;4977432;28;19909;-64
2023/10/22 08:31:43;;;;;;;;;;;15.10;99.90;;;;;;4994691;28;19910;-64
2023/10/22 08:34:08;;;;;;;;;;;15.10;99.90;;;;;;4994880;28;20262;-64
2023/10/22 08:36:35;;;;;;;;;;;15.10;99.90;;;;;;4977233;28;19910;-64
2023/10/22 08:39:01;;;;;;;;;;;15.10;99.90;;;;;;4994955;28;19913;-64
2023/10/22 08:41:29;;;;;;;;;;;15.10;99.90;;;;;;4994376;28;19906;-64
2023/10/22 08:43:55;;;;;;;;;;;15.10;99.90;;;;;;4994671;28;19906;-64
2023/10/22 08:46:20;;;;;;;;;;;15.10;99.90;;;;;;4994628;28;19913;-64
2023/10/22 08:48:46;;;;;;;;;;;15.00;99.90;;;;;;4977256;28;19905;-66
2023/10/22 08:51:11;;;;;;;;;;;14.90;99.90;;;;;;4994906;28;19929;-64
2023/10/22 08:53:37;;;;;;;;;;;14.90;99.90;;;;;;4994328;28;19906;-66
2023/10/22 08:56:03;;;;;;;;;;;14.90;99.90;;;;;;4994656;28;19906;-64
2023/10/22 08:58:29;;;;;;;;;;;14.80;99.90;;;;;;4994508;28;19905;-64
2023/10/22 09:00:54;;;;;;;;;;;14.80;99.90;;;;;;4994492;28;19906;-64
2023/10/22 09:03:20;;;;;;;;;;;14.80;99.90;;;;;;4994476;28;19913;-64
2023/10/22 09:05:46;;;;;;;;;;;14.70;99.90;;;;;;4977231;28;20017;-64
2023/10/22 09:08:12;;;;;;;;;;;14.80;99.90;;;;;;4976993;28;19952;-64
2023/10/22 09:10:38;;;;;;;;;;;14.80;99.90;;;;;;4977428;28;19914;-64
2023/10/22 09:13:06;;;;;;;;;;;14.80;99.90;;;;;;4980530;28;20246;-64
2023/10/22 09:15:45;;;;;;;;;;;14.80;99.90;;;;;;4996741;28;19920;-64
2023/10/22 09:18:11;;;;;;;;;;;14.80;99.90;;;;;;4997978;28;19928;-64
2023/10/22 09:20:38;;;;;;;;;;;14.90;99.90;;;;;;4997966;28;20369;-64
2023/10/22 09:23:19;;;;;;;;;;;14.90;99.90;;;;;;4997940;28;19906;-64
2023/10/22 09:25:46;;;;;;;;;;;14.90;99.90;;;;;;4996618;28;19913;-64
2023/10/22 09:28:14;;;;;;;;;;;15.00;99.90;;;;;;4997864;28;19960;-64
2023/10/22 09:30:40;;;;;;;;;;;15.00;99.90;;;;;;4997717;28;19910;-64
2023/10/22 09:33:08;;;;;;;;;;;15.00;99.90;;;;;;4997684;28;19916;-64
2023/10/22 09:35:34;;;;;;;;;;;15.10;99.90;;;;;;4997656;28;19933;-64
2023/10/22 09:38:00;;;;;;;;;;;15.10;99.90;;;;;;4980500;28;19906;-64
2023/10/22 09:40:25;;;;;;;;;;;15.10;99.90;;;;;;4997660;28;19913;-64
2023/10/22 09:42:51;;;;;;;;;;;15.10;99.90;;;;;;4997808;28;19953;-64
2023/10/22 09:45:18;;;;;;;;;;;15.10;99.90;;;;;;4999104;28;19906;-68
2023/10/22 09:47:45;;;;;;;;;;;15.10;99.90;;;;;;4983410;28;19906;-68
2023/10/22 09:50:14;;;;;;;;;;;15.10;99.90;;;;;;5000012;28;19913;-64
2023/10/22 09:52:42;;;;;;;;;;;15.10;99.90;;;;;;4997113;28;20340;-64
2023/10/22 09:55:12;;;;;;;;;;;15.20;99.90;;;;;;4980014;28;20020;-64
2023/10/22 09:57:39;;;;;;;;;;;15.20;99.90;;;;;;4997280;28;20019;-64
2023/10/22 10:00:10;;;;;;;;;;;15.30;99.90;;;;;;4980317;28;20223;-64
2023/10/22 10:02:36;;;;;;;;;;;15.30;99.90;;;;;;4997181;28;20377;-64
2023/10/22 10:05:05;;;;;;;;;;;15.40;99.90;;;;;;4996815;28;19906;-64
2023/10/22 10:07:31;;;;;;;;;;;15.50;99.90;;;;;;4997124;28;19909;-64
2023/10/22 10:09:57;;;;;;;;;;;15.50;99.90;;;;;;4997050;28;20396;-64
2023/10/22 10:12:24;;;;;;;;;;;15.60;99.90;;;;;;4997074;28;19917;-64
2023/10/22 10:14:50;;;;;;;;;;;15.60;99.90;;;;;;4979765;28;19906;-64
2023/10/22 10:17:17;;;;;;;;;;;15.70;99.90;;;;;;4995597;28;19912;-64
2023/10/22 10:19:43;;;;;;;;;;;15.70;99.90;;;;;;4997114;28;19905;-64
2023/10/22 10:22:08;;;;;;;;;;;15.60;99.90;;;;;;4978436;28;19985;-64
2023/10/22 10:24:34;;;;;;;;;;;15.50;99.90;;;;;;4996589;28;19913;-64
2023/10/22 10:27:00;;;;;;;;;;;15.50;99.90;;;;;;4996687;28;19905;-64
2023/10/22 10:29:30;;;;;;;;;;;15.60;99.90;;;;;;4996574;28;19906;-64
2023/10/22 10:32:15;;;;;;;;;;;15.60;99.90;;;;;;4996524;28;19914;-64
2023/10/22 10:34:43;;;;;;;;;;;15.80;99.90;;;;;;4979149;28;19913;-64
2023/10/22 10:37:09;;;;;;;;;;;15.90;99.90;;;;;;4979752;28;20020;-64
2023/10/22 10:39:47;;;;;;;;;;;16.10;99.90;;;;;;4996282;28;20009;-64
2023/10/22 10:42:13;;;;;;;;;;;16.10;99.90;;;;;;4996437;28;19906;-64
2023/10/22 10:45:01;;;;;;;;;;;16.20;99.90;;;;;;4978702;28;19910;-64
2023/10/22 10:47:33;;;;;;;;;;;16.40;99.90;;;;;;4996268;28;19910;-64
2023/10/22 10:50:03;;;;;;;;;;;16.60;99.90;;;;;;4978675;28;19906;-64
2023/10/22 10:52:35;;;;;;;;;;;16.70;99.90;;;;;;4996222;28;19917;-64
2023/10/22 10:55:01;;;;;;;;;;;16.80;99.90;;;;;;4996326;28;20025;-64
2023/10/22 10:57:42;;;;;;;;;;;16.80;99.80;;;;;;4996096;28;20044;-65
2023/10/22 11:00:16;;;;;;;;;;;16.80;99.30;;;;;;4978483;28;20048;-64
2023/10/22 11:02:43;;;;;;;;;;;16.90;99.40;;;;;;4996273;28;19905;-64
2023/10/22 11:05:09;;;;;;;;;;;17.00;98.90;;;;;;4978465;28;19910;-64
2023/10/22 11:07:36;;;;;;;;;;;17.00;98.60;;;;;;4995796;28;19906;-64
2023/10/22 11:10:11;;;;;;;;;;;17.10;98.40;;;;;;4995958;28;19913;-64
2023/10/22 11:12:37;;;;;;;;;;;17.10;98.30;;;;;;4995694;28;19957;-64
2023/10/22 11:15:03;;;;;;;;;;;17.20;98.20;;;;;;4995649;28;19905;-64
2023/10/22 11:17:29;;;;;;;;;;;17.30;98.30;;;;;;4995666;28;19913;-65
2023/10/22 11:19:54;;;;;;;;;;;17.20;98.00;;;;;;4994999;28;20242;-64
2023/10/22 11:22:20;;;;;;;;;;;17.30;97.70;;;;;;4995641;28;20233;-64
2023/10/22 11:24:46;;;;;;;;;;;18.10;96.40;;;;;;4995784;28;19906;-64
2023/10/22 11:27:13;;;;;;;;;;;18.10;95.90;;;;;;4978066;28;19949;-64
2023/10/22 11:29:39;;;;;;;;;;;18.20;96.00;;;;;;4978027;28;19910;-64
2023/10/22 11:32:10;;;;;;;;;;;17.90;95.90;;;;;;4995421;28;19916;-64
2023/10/22 11:34:35;;;;;;;;;;;17.70;96.00;;;;;;4995139;28;19917;-64
2023/10/22 11:37:01;;;;;;;;;;;17.60;96.40;;;;;;4995063;28;19906;-64
2023/10/22 11:39:34;;;;;;;;;;;17.50;96.50;;;;;;4995307;28;19906;-62
2023/10/22 11:41:59;;;;;;;;;;;17.30;96.30;;;;;;4978077;28;20364;-61
2023/10/22 11:44:30;;;;;;;;;;;17.30;97.40;;;;;;4995199;28;19996;-63
2023/10/22 11:46:57;;;;;;;;;;;17.30;96.10;;;;;;4995265;28;19906;-64
2023/10/22 11:49:23;;;;;;;;;;;17.20;96.00;;;;;;4977476;28;19955;-64
2023/10/22 11:51:48;;;;;;;;;;;17.10;96.10;;;;;;4994613;28;19921;-60
2023/10/22 11:54:14;;;;;;;;;;;17.30;97.30;;;;;;4978003;28;19906;-60
2023/10/22 11:56:40;;;;;;;;;;;17.50;96.60;;;;;;4995035;28;19952;-64
2023/10/22 11:59:06;;;;;;;;;;;17.50;95.80;;;;;;4995008;28;19913;-64
2023/10/22 12:01:32;;;;;;;;;;;17.50;96.10;;;;;;4977997;28;19905;-64
2023/10/22 12:03:58;;;;;;;;;;;17.50;95.80;;;;;;4977395;28;19906;-64
2023/10/22 12:06:23;;;;;;;;;;;17.60;95.80;;;;;;4994839;28;19933;-64
2023/10/22 12:08:49;;;;;;;;;;;17.80;95.60;;;;;;4994835;28;19912;-64
2023/10/22 12:11:14;;;;;;;;;;;18.10;94.90;;;;;;4994783;28;19916;-64
2023/10/22 12:13:40;;;;;;;;;;;18.40;94.90;;;;;;4992763;28;19914;-66
2023/10/22 12:16:05;;;;;;;;;;;18.30;94.80;;;;;;4993002;28;19909;-63
2023/10/22 12:18:31;;;;;;;;;;;18.80;94.10;;;;;;4975536;28;19953;-67
2023/10/22 12:20:57;;;;;;;;;;;19.60;93.00;;;;;;4992683;28;20297;-62
2023/10/22 12:23:23;;;;;;;;;;;20.50;90.50;;;;;;4992306;28;19916;-62
2023/10/22 12:25:48;;;;;;;;;;;21.50;87.00;;;;;;4992074;28;19918;-63
2023/10/22 12:28:14;;;;;;;;;;;21.90;85.40;;;;;;4993373;28;20309;-62
2023/10/22 12:30:40;;;;;;;;;;;22.20;83.60;;;;;;4987263;28;20381;-63
2023/10/22 12:33:06;;;;;;;;;;;22.60;80.20;;;;;;4980641;28;19917;-63
2023/10/22 12:35:31;;;;;;;;;;;22.90;78.70;;;;;;4992940;28;19910;-65
2023/10/22 12:37:57;;;;;;;;;;;23.40;77.10;;;;;;4992262;28;19913;-65
2023/10/22 12:40:22;;;;;;;;;;;23.90;71.80;;;;;;4994643;28;20021;-65
2023/10/22 12:42:48;;;;;;;;;;;23.00;71.60;;;;;;4994537;28;20361;-65
2023/10/22 12:45:14;;;;;;;;;;;23.30;70.70;;;;;;4976566;28;19913;-66
2023/10/22 12:47:39;;;;;;;;;;;23.20;70.80;;;;;;4995889;28;19976;-65
2023/10/22 12:50:05;;;;;;;;;;;23.50;70.20;;;;;;4998091;28;19976;-65
2023/10/22 12:52:30;;;;;;;;;;;23.50;69.50;;;;;;4994861;28;20415;-65
2023/10/22 12:54:56;;;;;;;;;;;23.10;69.00;;;;;;4995569;28;19956;-65
2023/10/22 12:57:21;;;;;;;;;;;23.00;69.10;;;;;;4995665;28;19914;-65
2023/10/22 12:59:47;;;;;;;;;;;22.90;68.70;;;;;;4995340;28;19906;-65
2023/10/22 13:02:13;;;;;;;;;;;21.50;71.10;;;;;;4995633;28;19910;-65
2023/10/22 13:04:40;;;;;;;;;;;20.40;73.50;;;;;;4989318;28;20357;-65
2023/10/22 13:07:06;;;;;;;;;;;19.70;75.80;;;;;;4976042;28;20352;-65
2023/10/22 13:09:32;;;;;;;;;;;19.40;77.70;;;;;;4959996;28;19970;-64
2023/10/22 13:11:58;;;;;;;;;;;18.90;78.10;;;;;;4975963;28;20273;-65
2023/10/22 13:14:24;;;;;;;;;;;18.70;79.90;;;;;;4993918;28;19914;-65
2023/10/22 13:16:50;;;;;;;;;;;18.60;80.60;;;;;;4996851;28;20012;-65
2023/10/22 13:19:16;;;;;;;;;;;18.50;81.30;;;;;;4995758;28;20389;-65
2023/10/22 13:21:42;;;;;;;;;;;18.30;81.30;;;;;;4996735;28;19960;-65
2023/10/22 13:24:09;;;;;;;;;;;18.20;82.50;;;;;;4996485;28;19909;-65
2023/10/22 13:26:34;;;;;;;;;;;18.20;83.30;;;;;;4995288;28;20451;-65
2023/10/22 13:29:06;;;;;;;;;;;18.20;83.10;;;;;;4995232;28;19996;-65
2023/10/22 13:31:32;;;;;;;;;;;18.20;84.00;;;;;;4978096;28;20358;-65
2023/10/22 13:33:58;;;;;;;;;;;18.10;85.00;;;;;;4980908;28;19909;-65
2023/10/22 13:36:23;;;;;;;;;;;18.10;85.60;;;;;;4995341;28;20000;-66
2023/10/22 13:38:49;;;;;;;;;;;18.20;85.70;;;;;;4996363;28;19997;-65
2023/10/22 13:41:14;;;;;;;;;;;18.20;85.30;;;;;;4994820;28;19960;-65
2023/10/22 13:43:40;;;;;;;;;;;18.20;85.00;;;;;;4995276;28;19905;-65
2023/10/22 13:46:05;;;;;;;;;;;18.20;85.60;;;;;;4996144;28;19928;-65
2023/10/22 13:48:31;;;;;;;;;;;18.10;85.40;;;;;;4994961;28;19952;-65
2023/10/22 13:50:58;;;;;;;;;;;18.20;85.50;;;;;;4958184;28;1107459;-64
2023/10/22 13:53:24;;;;;;;;;;;18.50;85.10;;;;;;4997332;28;19917;-65
2023/10/22 13:55:56;;;;;;;;;;;18.50;84.70;;;;;;4995863;28;19906;-65
2023/10/22 13:58:22;;;;;;;;;;;18.60;85.60;;;;;;4995358;28;19905;-65
2023/10/22 14:00:47;;;;;;;;;;;18.80;84.40;;;;;;4995789;28;19929;-65
2023/10/22 14:03:13;;;;;;;;;;;19.10;84.40;;;;;;4995721;28;19906;-65
2023/10/22 14:05:38;;;;;;;;;;;19.30;82.00;;;;;;4995881;28;19909;-65
2023/10/22 14:08:04;;;;;;;;;;;19.10;82.40;;;;;;4996655;28;19906;-65
2023/10/22 14:10:31;;;;;;;;;;;18.90;83.10;;;;;;4995497;28;19960;-65